sensor_id;sensor_type;location;lat;lon;timestamp;P1;durP1;ratioP1;P2;durP2;ratioP2
53273;SDS011;39163;52.696;6.758;2022-08-21T00:00:03;8.68;;;3.85;;
53273;SDS011;39163;52.696;6.758;2022-08-21T00:02:34;6.82;;;3.67;;
53273;SDS011;39163;52.696;6.758;2022-08-21T00:05:00;8.93;;;3.67;;
53273;SDS011;39163;52.696;6.758;2022-08-21T00:07:27;7.72;;;3.85;;
53273;SDS011;39163;52.696;6.758;2022-08-21T00:09:52;6.13;;;3.13;;
53273;SDS011;39163;52.696;6.758;2022-08-21T00:12:18;8.70;;;3.40;;
53273;SDS011;39163;52.696;6.758;2022-08-21T00:14:44;7.45;;;2.97;;
53273;SDS011;39163;52.696;6.758;2022-08-21T00:17:10;8.75;;;3.72;;
53273;SDS011;39163;52.696;6.758;2022-08-21T00:19:36;11.00;;;3.78;;
53273;SDS011;39163;52.696;6.758;2022-08-21T00:22:02;6.47;;;3.90;;
53273;SDS011;39163;52.696;6.758;2022-08-21T00:24:27;10.45;;;4.32;;
53273;SDS011;39163;52.696;6.758;2022-08-21T00:26:53;3.83;;;2.88;;
53273;SDS011;39163;52.696;6.758;2022-08-21T00:29:19;5.97;;;2.50;;
53273;SDS011;39163;52.696;6.758;2022-08-21T00:31:45;10.27;;;3.70;;
53273;SDS011;39163;52.696;6.758;2022-08-21T00:34:12;10.50;;;3.03;;
53273;SDS011;39163;52.696;6.758;2022-08-21T00:36:41;9.02;;;3.58;;
53273;SDS011;39163;52.696;6.758;2022-08-21T00:39:07;8.48;;;4.10;;
53273;SDS011;39163;52.696;6.758;2022-08-21T00:41:33;11.30;;;3.72;;
53273;SDS011;39163;52.696;6.758;2022-08-21T00:44:01;7.30;;;3.33;;
53273;SDS011;39163;52.696;6.758;2022-08-21T00:46:28;8.55;;;3.78;;
53273;SDS011;39163;52.696;6.758;2022-08-21T00:48:55;9.55;;;3.20;;
53273;SDS011;39163;52.696;6.758;2022-08-21T00:54:19;6.03;;;3.42;;
53273;SDS011;39163;52.696;6.758;2022-08-21T00:56:50;6.93;;;3.25;;
53273;SDS011;39163;52.696;6.758;2022-08-21T00:59:40;9.60;;;4.63;;
53273;SDS011;39163;52.696;6.758;2022-08-21T01:02:10;12.07;;;4.90;;
53273;SDS011;39163;52.696;6.758;2022-08-21T01:04:37;7.68;;;4.20;;
53273;SDS011;39163;52.696;6.758;2022-08-21T01:07:05;10.18;;;5.15;;
53273;SDS011;39163;52.696;6.758;2022-08-21T01:09:32;6.28;;;3.72;;
53273;SDS011;39163;52.696;6.758;2022-08-21T01:11:58;10.55;;;4.50;;
53273;SDS011;39163;52.696;6.758;2022-08-21T01:14:23;6.57;;;3.50;;
53273;SDS011;39163;52.696;6.758;2022-08-21T01:16:50;7.95;;;3.45;;
53273;SDS011;39163;52.696;6.758;2022-08-21T01:19:17;6.45;;;3.60;;
53273;SDS011;39163;52.696;6.758;2022-08-21T01:21:46;9.15;;;3.83;;
53273;SDS011;39163;52.696;6.758;2022-08-21T01:24:12;8.23;;;4.70;;
53273;SDS011;39163;52.696;6.758;2022-08-21T01:26:38;11.32;;;4.72;;
53273;SDS011;39163;52.696;6.758;2022-08-21T01:31:42;9.60;;;4.57;;
53273;SDS011;39163;52.696;6.758;2022-08-21T01:34:08;5.85;;;3.95;;
53273;SDS011;39163;52.696;6.758;2022-08-21T01:36:41;12.60;;;5.40;;
53273;SDS011;39163;52.696;6.758;2022-08-21T01:39:08;10.27;;;5.00;;
53273;SDS011;39163;52.696;6.758;2022-08-21T01:41:34;8.43;;;5.85;;
53273;SDS011;39163;52.696;6.758;2022-08-21T01:43:59;8.45;;;5.35;;
53273;SDS011;39163;52.696;6.758;2022-08-21T01:46:25;11.27;;;4.97;;
53273;SDS011;39163;52.696;6.758;2022-08-21T01:48:51;9.82;;;5.30;;
53273;SDS011;39163;52.696;6.758;2022-08-21T01:51:17;10.07;;;5.50;;
53273;SDS011;39163;52.696;6.758;2022-08-21T01:53:43;15.05;;;6.95;;
53273;SDS011;39163;52.696;6.758;2022-08-21T01:56:10;10.68;;;4.90;;
53273;SDS011;39163;52.696;6.758;2022-08-21T01:58:38;14.18;;;5.80;;
53273;SDS011;39163;52.696;6.758;2022-08-21T02:01:06;10.38;;;6.32;;
53273;SDS011;39163;52.696;6.758;2022-08-21T02:03:35;18.58;;;6.28;;
53273;SDS011;39163;52.696;6.758;2022-08-21T02:06:02;10.40;;;5.47;;
53273;SDS011;39163;52.696;6.758;2022-08-21T02:08:29;15.32;;;7.20;;
53273;SDS011;39163;52.696;6.758;2022-08-21T02:10:55;10.25;;;6.03;;
53273;SDS011;39163;52.696;6.758;2022-08-21T02:13:20;14.30;;;6.07;;
53273;SDS011;39163;52.696;6.758;2022-08-21T02:15:46;15.10;;;6.43;;
53273;SDS011;39163;52.696;6.758;2022-08-21T02:18:12;8.55;;;5.50;;
53273;SDS011;39163;52.696;6.758;2022-08-21T02:20:39;6.60;;;5.32;;
53273;SDS011;39163;52.696;6.758;2022-08-21T02:23:08;14.23;;;5.93;;
53273;SDS011;39163;52.696;6.758;2022-08-21T02:25:35;9.75;;;5.78;;
53273;SDS011;39163;52.696;6.758;2022-08-21T02:28:03;7.50;;;6.03;;
53273;SDS011;39163;52.696;6.758;2022-08-21T02:30:35;10.32;;;6.38;;
53273;SDS011;39163;52.696;6.758;2022-08-21T02:33:09;8.52;;;4.13;;
53273;SDS011;39163;52.696;6.758;2022-08-21T02:35:36;6.97;;;4.15;;
53273;SDS011;39163;52.696;6.758;2022-08-21T02:38:05;8.27;;;4.82;;
53273;SDS011;39163;52.696;6.758;2022-08-21T02:40:33;10.90;;;5.68;;
53273;SDS011;39163;52.696;6.758;2022-08-21T02:43:02;7.75;;;5.13;;
53273;SDS011;39163;52.696;6.758;2022-08-21T02:45:28;9.20;;;4.97;;
53273;SDS011;39163;52.696;6.758;2022-08-21T02:47:56;13.38;;;6.90;;
53273;SDS011;39163;52.696;6.758;2022-08-21T02:50:25;11.05;;;5.70;;
53273;SDS011;39163;52.696;6.758;2022-08-21T02:52:59;9.40;;;6.17;;
53273;SDS011;39163;52.696;6.758;2022-08-21T02:55:26;10.70;;;6.00;;
53273;SDS011;39163;52.696;6.758;2022-08-21T02:57:54;8.60;;;5.13;;
53273;SDS011;39163;52.696;6.758;2022-08-21T03:00:21;10.05;;;5.30;;
53273;SDS011;39163;52.696;6.758;2022-08-21T03:02:49;11.45;;;6.05;;
53273;SDS011;39163;52.696;6.758;2022-08-21T03:05:15;13.18;;;6.65;;
53273;SDS011;39163;52.696;6.758;2022-08-21T03:07:42;9.00;;;5.25;;
53273;SDS011;39163;52.696;6.758;2022-08-21T03:10:09;11.30;;;6.72;;
53273;SDS011;39163;52.696;6.758;2022-08-21T03:12:36;14.23;;;4.75;;
53273;SDS011;39163;52.696;6.758;2022-08-21T03:15:03;13.30;;;7.03;;
53273;SDS011;39163;52.696;6.758;2022-08-21T03:17:30;7.63;;;4.53;;
53273;SDS011;39163;52.696;6.758;2022-08-21T03:19:56;10.13;;;6.22;;
53273;SDS011;39163;52.696;6.758;2022-08-21T03:22:22;9.25;;;5.85;;
53273;SDS011;39163;52.696;6.758;2022-08-21T03:24:48;10.45;;;7.00;;
53273;SDS011;39163;52.696;6.758;2022-08-21T03:27:13;7.05;;;3.58;;
53273;SDS011;39163;52.696;6.758;2022-08-21T03:29:42;7.55;;;4.50;;
53273;SDS011;39163;52.696;6.758;2022-08-21T03:32:08;12.68;;;6.97;;
53273;SDS011;39163;52.696;6.758;2022-08-21T03:34:35;8.45;;;5.85;;
53273;SDS011;39163;52.696;6.758;2022-08-21T03:37:05;6.85;;;4.60;;
53273;SDS011;39163;52.696;6.758;2022-08-21T03:39:32;7.13;;;4.53;;
53273;SDS011;39163;52.696;6.758;2022-08-21T03:41:58;7.20;;;5.13;;
53273;SDS011;39163;52.696;6.758;2022-08-21T03:44:25;6.63;;;4.40;;
53273;SDS011;39163;52.696;6.758;2022-08-21T03:46:53;6.63;;;4.50;;
53273;SDS011;39163;52.696;6.758;2022-08-21T03:49:19;10.07;;;6.00;;
53273;SDS011;39163;52.696;6.758;2022-08-21T03:51:50;12.80;;;6.25;;
53273;SDS011;39163;52.696;6.758;2022-08-21T03:54:16;7.50;;;4.40;;
53273;SDS011;39163;52.696;6.758;2022-08-21T03:56:42;6.25;;;3.92;;
53273;SDS011;39163;52.696;6.758;2022-08-21T03:59:08;7.57;;;4.40;;
53273;SDS011;39163;52.696;6.758;2022-08-21T04:01:37;6.07;;;4.15;;
53273;SDS011;39163;52.696;6.758;2022-08-21T04:04:04;14.32;;;7.93;;
53273;SDS011;39163;52.696;6.758;2022-08-21T04:06:31;5.85;;;4.95;;
53273;SDS011;39163;52.696;6.758;2022-08-21T04:08:58;9.23;;;3.72;;
53273;SDS011;39163;52.696;6.758;2022-08-21T04:11:23;8.30;;;6.03;;
53273;SDS011;39163;52.696;6.758;2022-08-21T04:13:49;6.85;;;4.28;;
53273;SDS011;39163;52.696;6.758;2022-08-21T04:16:18;8.10;;;5.30;;
53273;SDS011;39163;52.696;6.758;2022-08-21T04:18:44;8.48;;;4.60;;
53273;SDS011;39163;52.696;6.758;2022-08-21T04:21:10;7.90;;;4.60;;
53273;SDS011;39163;52.696;6.758;2022-08-21T04:23:37;6.50;;;5.20;;
53273;SDS011;39163;52.696;6.758;2022-08-21T04:26:02;8.32;;;5.60;;
53273;SDS011;39163;52.696;6.758;2022-08-21T04:28:28;10.13;;;5.72;;
53273;SDS011;39163;52.696;6.758;2022-08-21T04:30:54;14.32;;;6.28;;
53273;SDS011;39163;52.696;6.758;2022-08-21T04:33:29;7.53;;;4.85;;
53273;SDS011;39163;52.696;6.758;2022-08-21T04:36:00;12.32;;;6.50;;
53273;SDS011;39163;52.696;6.758;2022-08-21T04:38:29;5.90;;;4.22;;
53273;SDS011;39163;52.696;6.758;2022-08-21T04:40:58;8.75;;;5.10;;
53273;SDS011;39163;52.696;6.758;2022-08-21T04:43:24;8.02;;;4.18;;
53273;SDS011;39163;52.696;6.758;2022-08-21T04:45:50;8.60;;;5.30;;
53273;SDS011;39163;52.696;6.758;2022-08-21T04:48:18;10.52;;;4.78;;
53273;SDS011;39163;52.696;6.758;2022-08-21T04:50:49;11.13;;;4.75;;
53273;SDS011;39163;52.696;6.758;2022-08-21T04:56:36;10.52;;;4.97;;
53273;SDS011;39163;52.696;6.758;2022-08-21T04:59:07;11.35;;;4.70;;
53273;SDS011;39163;52.696;6.758;2022-08-21T05:01:54;12.93;;;7.22;;
53273;SDS011;39163;52.696;6.758;2022-08-21T05:04:23;11.13;;;6.15;;
53273;SDS011;39163;52.696;6.758;2022-08-21T05:06:54;8.40;;;6.00;;
53273;SDS011;39163;52.696;6.758;2022-08-21T05:09:22;9.50;;;5.40;;
53273;SDS011;39163;52.696;6.758;2022-08-21T05:11:49;8.88;;;5.32;;
53273;SDS011;39163;52.696;6.758;2022-08-21T05:14:18;10.45;;;5.85;;
53273;SDS011;39163;52.696;6.758;2022-08-21T05:16:47;6.97;;;5.03;;
53273;SDS011;39163;52.696;6.758;2022-08-21T05:19:13;9.75;;;6.47;;
53273;SDS011;39163;52.696;6.758;2022-08-21T05:21:45;8.60;;;6.00;;
53273;SDS011;39163;52.696;6.758;2022-08-21T05:24:12;11.45;;;5.93;;
53273;SDS011;39163;52.696;6.758;2022-08-21T05:26:38;7.72;;;5.55;;
53273;SDS011;39163;52.696;6.758;2022-08-21T05:29:04;8.70;;;5.38;;
53273;SDS011;39163;52.696;6.758;2022-08-21T05:31:30;6.93;;;5.00;;
53273;SDS011;39163;52.696;6.758;2022-08-21T05:33:56;10.02;;;5.45;;
53273;SDS011;39163;52.696;6.758;2022-08-21T05:36:25;10.65;;;4.90;;
53273;SDS011;39163;52.696;6.758;2022-08-21T05:38:50;10.52;;;5.00;;
53273;SDS011;39163;52.696;6.758;2022-08-21T05:41:16;9.02;;;4.88;;
53273;SDS011;39163;52.696;6.758;2022-08-21T05:43:42;8.18;;;5.20;;
53273;SDS011;39163;52.696;6.758;2022-08-21T05:46:07;10.02;;;5.53;;
53273;SDS011;39163;52.696;6.758;2022-08-21T05:48:34;9.38;;;4.97;;
53273;SDS011;39163;52.696;6.758;2022-08-21T05:51:08;9.20;;;4.28;;
53273;SDS011;39163;52.696;6.758;2022-08-21T05:53:36;9.60;;;4.30;;
53273;SDS011;39163;52.696;6.758;2022-08-21T05:56:02;7.03;;;4.00;;
53273;SDS011;39163;52.696;6.758;2022-08-21T05:58:29;10.23;;;3.80;;
53273;SDS011;39163;52.696;6.758;2022-08-21T06:00:56;9.75;;;4.60;;
53273;SDS011;39163;52.696;6.758;2022-08-21T06:03:27;10.65;;;5.35;;
53273;SDS011;39163;52.696;6.758;2022-08-21T06:05:58;7.75;;;4.38;;
53273;SDS011;39163;52.696;6.758;2022-08-21T06:08:24;11.73;;;5.75;;
53273;SDS011;39163;52.696;6.758;2022-08-21T06:10:51;6.95;;;3.95;;
53273;SDS011;39163;52.696;6.758;2022-08-21T06:13:18;7.63;;;3.90;;
53273;SDS011;39163;52.696;6.758;2022-08-21T06:15:45;9.25;;;4.25;;
53273;SDS011;39163;52.696;6.758;2022-08-21T06:18:14;11.80;;;3.95;;
53273;SDS011;39163;52.696;6.758;2022-08-21T06:20:40;10.40;;;4.20;;
53273;SDS011;39163;52.696;6.758;2022-08-21T06:23:07;8.63;;;4.10;;
53273;SDS011;39163;52.696;6.758;2022-08-21T06:25:33;8.45;;;3.88;;
53273;SDS011;39163;52.696;6.758;2022-08-21T06:28:11;12.60;;;3.90;;
53273;SDS011;39163;52.696;6.758;2022-08-21T06:30:37;9.43;;;3.83;;
53273;SDS011;39163;52.696;6.758;2022-08-21T06:33:07;8.38;;;3.45;;
53273;SDS011;39163;52.696;6.758;2022-08-21T06:35:33;7.15;;;3.38;;
53273;SDS011;39163;52.696;6.758;2022-08-21T06:37:59;11.43;;;3.08;;
53273;SDS011;39163;52.696;6.758;2022-08-21T06:40:26;8.27;;;2.92;;
53273;SDS011;39163;52.696;6.758;2022-08-21T06:42:52;5.65;;;2.65;;
53273;SDS011;39163;52.696;6.758;2022-08-21T06:45:18;7.18;;;3.00;;
53273;SDS011;39163;52.696;6.758;2022-08-21T06:47:44;8.10;;;2.58;;
53273;SDS011;39163;52.696;6.758;2022-08-21T06:50:10;8.68;;;3.05;;
53273;SDS011;39163;52.696;6.758;2022-08-21T06:52:36;7.10;;;2.45;;
53273;SDS011;39163;52.696;6.758;2022-08-21T06:55:03;7.43;;;2.35;;
53273;SDS011;39163;52.696;6.758;2022-08-21T06:57:31;5.05;;;1.95;;
53273;SDS011;39163;52.696;6.758;2022-08-21T06:59:56;3.97;;;2.15;;
53273;SDS011;39163;52.696;6.758;2022-08-21T07:02:22;4.68;;;1.75;;
53273;SDS011;39163;52.696;6.758;2022-08-21T07:04:48;7.65;;;1.80;;
53273;SDS011;39163;52.696;6.758;2022-08-21T07:07:20;5.57;;;1.90;;
53273;SDS011;39163;52.696;6.758;2022-08-21T07:09:45;9.38;;;2.80;;
53273;SDS011;39163;52.696;6.758;2022-08-21T07:12:20;8.02;;;3.05;;
53273;SDS011;39163;52.696;6.758;2022-08-21T07:14:45;6.90;;;2.03;;
53273;SDS011;39163;52.696;6.758;2022-08-21T07:17:11;7.38;;;2.30;;
53273;SDS011;39163;52.696;6.758;2022-08-21T07:19:37;9.32;;;1.70;;
53273;SDS011;39163;52.696;6.758;2022-08-21T07:22:03;7.97;;;1.90;;
53273;SDS011;39163;52.696;6.758;2022-08-21T07:24:29;4.43;;;1.58;;
53273;SDS011;39163;52.696;6.758;2022-08-21T07:26:58;8.23;;;2.00;;
53273;SDS011;39163;52.696;6.758;2022-08-21T07:29:23;8.90;;;2.15;;
53273;SDS011;39163;52.696;6.758;2022-08-21T07:31:55;9.00;;;1.90;;
53273;SDS011;39163;52.696;6.758;2022-08-21T07:34:21;7.82;;;2.30;;
53273;SDS011;39163;52.696;6.758;2022-08-21T07:36:52;7.95;;;1.52;;
53273;SDS011;39163;52.696;6.758;2022-08-21T07:39:21;7.38;;;1.92;;
53273;SDS011;39163;52.696;6.758;2022-08-21T07:41:47;5.00;;;1.00;;
53273;SDS011;39163;52.696;6.758;2022-08-21T07:44:13;6.45;;;1.42;;
53273;SDS011;39163;52.696;6.758;2022-08-21T07:46:38;7.97;;;1.52;;
53273;SDS011;39163;52.696;6.758;2022-08-21T07:49:22;4.82;;;1.63;;
53273;SDS011;39163;52.696;6.758;2022-08-21T07:51:51;9.63;;;2.42;;
53273;SDS011;39163;52.696;6.758;2022-08-21T07:54:23;7.38;;;1.20;;
53273;SDS011;39163;52.696;6.758;2022-08-21T07:56:52;9.00;;;1.85;;
53273;SDS011;39163;52.696;6.758;2022-08-21T07:59:17;5.00;;;1.67;;
53273;SDS011;39163;52.696;6.758;2022-08-21T08:01:43;5.50;;;1.40;;
53273;SDS011;39163;52.696;6.758;2022-08-21T08:04:09;7.45;;;1.85;;
53273;SDS011;39163;52.696;6.758;2022-08-21T08:06:35;8.32;;;2.38;;
53273;SDS011;39163;52.696;6.758;2022-08-21T08:09:00;11.40;;;1.67;;
53273;SDS011;39163;52.696;6.758;2022-08-21T08:11:28;8.50;;;1.90;;
53273;SDS011;39163;52.696;6.758;2022-08-21T08:13:54;9.98;;;2.10;;
53273;SDS011;39163;52.696;6.758;2022-08-21T08:16:22;11.40;;;2.22;;
53273;SDS011;39163;52.696;6.758;2022-08-21T08:18:48;8.82;;;2.42;;
53273;SDS011;39163;52.696;6.758;2022-08-21T08:21:17;9.68;;;2.10;;
53273;SDS011;39163;52.696;6.758;2022-08-21T08:23:49;9.05;;;1.80;;
53273;SDS011;39163;52.696;6.758;2022-08-21T08:26:14;9.70;;;1.90;;
53273;SDS011;39163;52.696;6.758;2022-08-21T08:28:41;9.88;;;1.95;;
53273;SDS011;39163;52.696;6.758;2022-08-21T08:31:12;8.70;;;1.67;;
53273;SDS011;39163;52.696;6.758;2022-08-21T08:33:46;6.32;;;1.05;;
53273;SDS011;39163;52.696;6.758;2022-08-21T08:36:12;4.85;;;1.50;;
53273;SDS011;39163;52.696;6.758;2022-08-21T08:38:42;6.25;;;1.17;;
53273;SDS011;39163;52.696;6.758;2022-08-21T08:41:12;4.80;;;1.25;;
53273;SDS011;39163;52.696;6.758;2022-08-21T08:43:53;7.28;;;1.52;;
53273;SDS011;39163;52.696;6.758;2022-08-21T08:46:33;6.43;;;1.50;;
53273;SDS011;39163;52.696;6.758;2022-08-21T08:49:15;13.93;;;6.55;;
53273;SDS011;39163;52.696;6.758;2022-08-21T08:51:57;10.70;;;1.60;;
53273;SDS011;39163;52.696;6.758;2022-08-21T08:57:37;8.98;;;3.08;;
53273;SDS011;39163;52.696;6.758;2022-08-21T09:00:11;7.88;;;2.47;;
53273;SDS011;39163;52.696;6.758;2022-08-21T09:02:38;7.65;;;1.38;;
53273;SDS011;39163;52.696;6.758;2022-08-21T09:05:20;5.55;;;0.70;;
53273;SDS011;39163;52.696;6.758;2022-08-21T09:10:48;7.55;;;1.15;;
53273;SDS011;39163;52.696;6.758;2022-08-21T09:13:24;4.35;;;1.10;;
53273;SDS011;39163;52.696;6.758;2022-08-21T09:18:58;5.13;;;1.00;;
53273;SDS011;39163;52.696;6.758;2022-08-21T09:27:25;10.50;;;2.23;;
53273;SDS011;39163;52.696;6.758;2022-08-21T09:29:52;7.18;;;2.05;;
53273;SDS011;39163;52.696;6.758;2022-08-21T09:32:21;10.90;;;4.28;;
53273;SDS011;39163;52.696;6.758;2022-08-21T09:35:08;5.70;;;1.13;;
53273;SDS011;39163;52.696;6.758;2022-08-21T09:37:58;6.20;;;1.13;;
53273;SDS011;39163;52.696;6.758;2022-08-21T09:40:37;7.75;;;1.42;;
53273;SDS011;39163;52.696;6.758;2022-08-21T09:43:26;11.15;;;1.05;;
53273;SDS011;39163;52.696;6.758;2022-08-21T09:48:58;8.55;;;1.30;;
53273;SDS011;39163;52.696;6.758;2022-08-21T09:51:27;5.63;;;1.48;;
53273;SDS011;39163;52.696;6.758;2022-08-21T09:54:08;5.45;;;0.70;;
53273;SDS011;39163;52.696;6.758;2022-08-21T09:56:54;6.50;;;1.02;;
53273;SDS011;39163;52.696;6.758;2022-08-21T09:59:41;7.43;;;0.60;;
53273;SDS011;39163;52.696;6.758;2022-08-21T10:02:23;7.40;;;0.77;;
53273;SDS011;39163;52.696;6.758;2022-08-21T10:04:55;3.35;;;0.63;;
53273;SDS011;39163;52.696;6.758;2022-08-21T10:07:40;6.95;;;1.35;;
53273;SDS011;39163;52.696;6.758;2022-08-21T10:12:58;4.63;;;0.82;;
53273;SDS011;39163;52.696;6.758;2022-08-21T10:15:40;5.05;;;1.33;;
53273;SDS011;39163;52.696;6.758;2022-08-21T10:20:55;7.40;;;1.10;;
53273;SDS011;39163;52.696;6.758;2022-08-21T10:34:21;6.50;;;2.05;;
53273;SDS011;39163;52.696;6.758;2022-08-21T10:37:07;4.00;;;0.77;;
53273;SDS011;39163;52.696;6.758;2022-08-21T10:39:36;9.40;;;0.68;;
53273;SDS011;39163;52.696;6.758;2022-08-21T10:42:27;4.53;;;0.60;;
53273;SDS011;39163;52.696;6.758;2022-08-21T10:47:36;7.28;;;1.00;;
53273;SDS011;39163;52.696;6.758;2022-08-21T10:50:30;6.45;;;1.23;;
53273;SDS011;39163;52.696;6.758;2022-08-21T10:55:51;6.82;;;0.70;;
53273;SDS011;39163;52.696;6.758;2022-08-21T10:58:37;7.03;;;0.65;;
53273;SDS011;39163;52.696;6.758;2022-08-21T11:01:11;3.42;;;0.60;;
53273;SDS011;39163;52.696;6.758;2022-08-21T11:03:46;6.47;;;1.02;;
53273;SDS011;39163;52.696;6.758;2022-08-21T11:06:25;4.18;;;0.50;;
53273;SDS011;39163;52.696;6.758;2022-08-21T11:09:12;6.03;;;0.93;;
53273;SDS011;39163;52.696;6.758;2022-08-21T11:11:47;6.18;;;0.40;;
53273;SDS011;39163;52.696;6.758;2022-08-21T11:17:11;4.75;;;0.40;;
53273;SDS011;39163;52.696;6.758;2022-08-21T11:25:06;5.35;;;0.30;;
53273;SDS011;39163;52.696;6.758;2022-08-21T11:31:22;4.07;;;0.40;;
53273;SDS011;39163;52.696;6.758;2022-08-21T11:33:47;5.13;;;0.70;;
53273;SDS011;39163;52.696;6.758;2022-08-21T11:38:57;4.45;;;0.85;;
53273;SDS011;39163;52.696;6.758;2022-08-21T11:47:24;3.42;;;0.35;;
53273;SDS011;39163;52.696;6.758;2022-08-21T11:52:42;5.07;;;0.52;;
53273;SDS011;39163;52.696;6.758;2022-08-21T11:55:29;3.83;;;0.30;;
53273;SDS011;39163;52.696;6.758;2022-08-21T11:58:49;3.63;;;0.57;;
53273;SDS011;39163;52.696;6.758;2022-08-21T12:00:56;4.45;;;0.50;;
53273;SDS011;39163;52.696;6.758;2022-08-21T12:03:33;5.88;;;0.60;;
53273;SDS011;39163;52.696;6.758;2022-08-21T12:06:07;5.38;;;0.70;;
53273;SDS011;39163;52.696;6.758;2022-08-21T12:08:38;6.88;;;0.50;;
53273;SDS011;39163;52.696;6.758;2022-08-21T12:13:54;4.45;;;0.32;;
53273;SDS011;39163;52.696;6.758;2022-08-21T12:16:38;3.40;;;0.40;;
53273;SDS011;39163;52.696;6.758;2022-08-21T12:21:58;4.30;;;0.43;;
53273;SDS011;39163;52.696;6.758;2022-08-21T12:24:38;3.53;;;0.90;;
53273;SDS011;39163;52.696;6.758;2022-08-21T12:29:47;3.15;;;0.40;;
53273;SDS011;39163;52.696;6.758;2022-08-21T12:34:44;4.40;;;0.75;;
53273;SDS011;39163;52.696;6.758;2022-08-21T12:39:57;4.32;;;1.20;;
53273;SDS011;39163;52.696;6.758;2022-08-21T12:42:38;4.68;;;0.60;;
53273;SDS011;39163;52.696;6.758;2022-08-21T12:47:56;7.00;;;0.70;;
53273;SDS011;39163;52.696;6.758;2022-08-21T12:53:12;4.43;;;0.47;;
53273;SDS011;39163;52.696;6.758;2022-08-21T12:56:04;5.38;;;0.50;;
53273;SDS011;39163;52.696;6.758;2022-08-21T12:58:50;5.18;;;0.40;;
53273;SDS011;39163;52.696;6.758;2022-08-21T13:01:25;6.78;;;0.30;;
53273;SDS011;39163;52.696;6.758;2022-08-21T13:03:55;3.75;;;0.30;;
53273;SDS011;39163;52.696;6.758;2022-08-21T13:06:25;5.47;;;0.40;;
53273;SDS011;39163;52.696;6.758;2022-08-21T13:09:03;3.55;;;0.40;;
53273;SDS011;39163;52.696;6.758;2022-08-21T13:11:31;5.93;;;0.60;;
53273;SDS011;39163;52.696;6.758;2022-08-21T13:13:58;4.65;;;0.50;;
53273;SDS011;39163;52.696;6.758;2022-08-21T13:16:27;3.88;;;0.60;;
53273;SDS011;39163;52.696;6.758;2022-08-21T13:19:02;1.73;;;0.28;;
53273;SDS011;39163;52.696;6.758;2022-08-21T13:21:34;5.72;;;0.45;;
53273;SDS011;39163;52.696;6.758;2022-08-21T13:24:16;6.40;;;0.82;;
53273;SDS011;39163;52.696;6.758;2022-08-21T13:26:48;4.03;;;0.38;;
53273;SDS011;39163;52.696;6.758;2022-08-21T13:29:16;4.13;;;0.40;;
53273;SDS011;39163;52.696;6.758;2022-08-21T13:31:55;4.68;;;0.35;;
53273;SDS011;39163;52.696;6.758;2022-08-21T13:34:24;6.60;;;0.45;;
53273;SDS011;39163;52.696;6.758;2022-08-21T13:36:54;5.30;;;0.57;;
53273;SDS011;39163;52.696;6.758;2022-08-21T13:39:23;4.60;;;0.30;;
53273;SDS011;39163;52.696;6.758;2022-08-21T13:41:50;3.63;;;0.40;;
53273;SDS011;39163;52.696;6.758;2022-08-21T13:46:54;5.35;;;0.57;;
53273;SDS011;39163;52.696;6.758;2022-08-21T13:49:26;3.47;;;0.40;;
53273;SDS011;39163;52.696;6.758;2022-08-21T13:52:03;3.92;;;0.40;;
53273;SDS011;39163;52.696;6.758;2022-08-21T13:54:36;8.90;;;1.02;;
53273;SDS011;39163;52.696;6.758;2022-08-21T13:57:15;5.38;;;0.95;;
53273;SDS011;39163;52.696;6.758;2022-08-21T13:59:53;5.07;;;0.60;;
53273;SDS011;39163;52.696;6.758;2022-08-21T14:02:49;10.95;;;1.55;;
53273;SDS011;39163;52.696;6.758;2022-08-21T14:05:21;8.48;;;0.57;;
53273;SDS011;39163;52.696;6.758;2022-08-21T14:07:57;3.50;;;0.30;;
53273;SDS011;39163;52.696;6.758;2022-08-21T14:10:42;5.38;;;0.85;;
53273;SDS011;39163;52.696;6.758;2022-08-21T14:16:18;3.72;;;0.68;;
53273;SDS011;39163;52.696;6.758;2022-08-21T14:18:54;4.13;;;0.50;;
53273;SDS011;39163;52.696;6.758;2022-08-21T14:21:44;6.68;;;1.13;;
53273;SDS011;39163;52.696;6.758;2022-08-21T14:26:49;4.40;;;0.47;;
53273;SDS011;39163;52.696;6.758;2022-08-21T14:29:24;9.70;;;0.77;;
53273;SDS011;39163;52.696;6.758;2022-08-21T14:31:57;4.93;;;0.73;;
53273;SDS011;39163;52.696;6.758;2022-08-21T14:34:25;3.53;;;0.50;;
53273;SDS011;39163;52.696;6.758;2022-08-21T14:36:53;2.58;;;0.30;;
53273;SDS011;39163;52.696;6.758;2022-08-21T14:39:24;6.53;;;0.93;;
53273;SDS011;39163;52.696;6.758;2022-08-21T14:41:49;4.78;;;0.43;;
53273;SDS011;39163;52.696;6.758;2022-08-21T14:44:17;4.60;;;0.40;;
53273;SDS011;39163;52.696;6.758;2022-08-21T14:46:44;5.38;;;0.52;;
53273;SDS011;39163;52.696;6.758;2022-08-21T14:49:11;5.20;;;0.70;;
53273;SDS011;39163;52.696;6.758;2022-08-21T14:51:37;6.57;;;0.68;;
53273;SDS011;39163;52.696;6.758;2022-08-21T14:54:04;9.57;;;1.38;;
53273;SDS011;39163;52.696;6.758;2022-08-21T14:56:31;7.32;;;0.93;;
53273;SDS011;39163;52.696;6.758;2022-08-21T14:58:59;6.78;;;0.85;;
53273;SDS011;39163;52.696;6.758;2022-08-21T15:01:29;4.63;;;0.77;;
53273;SDS011;39163;52.696;6.758;2022-08-21T15:03:56;4.65;;;0.63;;
53273;SDS011;39163;52.696;6.758;2022-08-21T15:06:22;9.05;;;1.05;;
53273;SDS011;39163;52.696;6.758;2022-08-21T15:08:47;11.57;;;0.85;;
53273;SDS011;39163;52.696;6.758;2022-08-21T15:11:16;8.05;;;1.38;;
53273;SDS011;39163;52.696;6.758;2022-08-21T15:13:44;5.47;;;0.57;;
53273;SDS011;39163;52.696;6.758;2022-08-21T15:16:10;4.57;;;0.38;;
53273;SDS011;39163;52.696;6.758;2022-08-21T15:18:36;7.60;;;1.08;;
53273;SDS011;39163;52.696;6.758;2022-08-21T15:21:03;3.83;;;0.60;;
53273;SDS011;39163;52.696;6.758;2022-08-21T15:23:28;5.40;;;0.70;;
53273;SDS011;39163;52.696;6.758;2022-08-21T15:25:54;5.78;;;0.82;;
53273;SDS011;39163;52.696;6.758;2022-08-21T15:28:22;8.65;;;0.95;;
53273;SDS011;39163;52.696;6.758;2022-08-21T15:30:49;7.07;;;1.17;;
53273;SDS011;39163;52.696;6.758;2022-08-21T15:33:18;7.78;;;1.10;;
53273;SDS011;39163;52.696;6.758;2022-08-21T15:35:44;7.88;;;2.85;;
53273;SDS011;39163;52.696;6.758;2022-08-21T15:38:11;10.57;;;2.03;;
53273;SDS011;39163;52.696;6.758;2022-08-21T15:40:38;6.95;;;1.67;;
53273;SDS011;39163;52.696;6.758;2022-08-21T15:43:05;6.35;;;1.95;;
53273;SDS011;39163;52.696;6.758;2022-08-21T15:45:44;6.20;;;2.30;;
53273;SDS011;39163;52.696;6.758;2022-08-21T15:48:10;5.93;;;0.90;;
53273;SDS011;39163;52.696;6.758;2022-08-21T15:50:36;3.72;;;0.93;;
53273;SDS011;39163;52.696;6.758;2022-08-21T15:53:02;7.43;;;1.58;;
53273;SDS011;39163;52.696;6.758;2022-08-21T15:55:28;4.55;;;0.60;;
53273;SDS011;39163;52.696;6.758;2022-08-21T15:57:54;3.65;;;0.50;;
53273;SDS011;39163;52.696;6.758;2022-08-21T16:00:21;4.22;;;0.95;;
53273;SDS011;39163;52.696;6.758;2022-08-21T16:02:50;7.78;;;1.20;;
53273;SDS011;39163;52.696;6.758;2022-08-21T16:05:19;6.60;;;1.42;;
53273;SDS011;39163;52.696;6.758;2022-08-21T16:07:48;4.55;;;0.90;;
53273;SDS011;39163;52.696;6.758;2022-08-21T16:10:16;14.77;;;5.85;;
53273;SDS011;39163;52.696;6.758;2022-08-21T16:12:46;12.05;;;5.53;;
53273;SDS011;39163;52.696;6.758;2022-08-21T16:15:15;12.35;;;4.18;;
53273;SDS011;39163;52.696;6.758;2022-08-21T16:17:42;8.43;;;1.70;;
53273;SDS011;39163;52.696;6.758;2022-08-21T16:20:14;5.85;;;1.40;;
53273;SDS011;39163;52.696;6.758;2022-08-21T16:22:43;5.28;;;1.55;;
53273;SDS011;39163;52.696;6.758;2022-08-21T16:25:10;11.60;;;1.80;;
53273;SDS011;39163;52.696;6.758;2022-08-21T16:27:36;9.05;;;2.00;;
53273;SDS011;39163;52.696;6.758;2022-08-21T16:30:02;5.65;;;0.80;;
53273;SDS011;39163;52.696;6.758;2022-08-21T16:32:30;10.00;;;1.10;;
53273;SDS011;39163;52.696;6.758;2022-08-21T16:34:56;4.28;;;0.60;;
53273;SDS011;39163;52.696;6.758;2022-08-21T16:37:21;16.92;;;10.63;;
53273;SDS011;39163;52.696;6.758;2022-08-21T16:39:47;7.03;;;1.27;;